sensor_id;sensor_type;location;lat;lon;timestamp;P1;durP1;ratioP1;P2;durP2;ratioP2
15799;SDS011;8002;51.196;7.010;2023-07-31T00:01:13;10.50;;;5.32;;
15799;SDS011;8002;51.196;7.010;2023-07-31T00:03:39;11.48;;;5.90;;
15799;SDS011;8002;51.196;7.010;2023-07-31T00:06:05;10.25;;;6.65;;
15799;SDS011;8002;51.196;7.010;2023-07-31T00:08:33;12.00;;;5.75;;
15799;SDS011;8002;51.196;7.010;2023-07-31T00:11:00;13.00;;;6.60;;
15799;SDS011;8002;51.196;7.010;2023-07-31T00:13:26;11.70;;;6.05;;
15799;SDS011;8002;51.196;7.010;2023-07-31T00:15:52;12.13;;;6.20;;
15799;SDS011;8002;51.196;7.010;2023-07-31T00:18:19;11.27;;;6.45;;
15799;SDS011;8002;51.196;7.010;2023-07-31T00:20:45;10.52;;;6.28;;
15799;SDS011;8002;51.196;7.010;2023-07-31T00:23:11;12.25;;;5.75;;
15799;SDS011;8002;51.196;7.010;2023-07-31T00:25:39;9.43;;;5.72;;
15799;SDS011;8002;51.196;7.010;2023-07-31T00:28:05;9.55;;;5.40;;
15799;SDS011;8002;51.196;7.010;2023-07-31T00:30:32;12.95;;;5.68;;
15799;SDS011;8002;51.196;7.010;2023-07-31T00:32:58;16.33;;;6.72;;
15799;SDS011;8002;51.196;7.010;2023-07-31T00:35:24;11.35;;;5.80;;
15799;SDS011;8002;51.196;7.010;2023-07-31T00:37:51;11.30;;;6.28;;
15799;SDS011;8002;51.196;7.010;2023-07-31T00:40:17;9.85;;;5.68;;
15799;SDS011;8002;51.196;7.010;2023-07-31T00:42:45;14.18;;;6.45;;
15799;SDS011;8002;51.196;7.010;2023-07-31T00:45:11;12.27;;;6.10;;
15799;SDS011;8002;51.196;7.010;2023-07-31T00:47:38;13.13;;;6.40;;
15799;SDS011;8002;51.196;7.010;2023-07-31T00:50:04;14.43;;;6.00;;
15799;SDS011;8002;51.196;7.010;2023-07-31T00:52:31;12.63;;;6.22;;
15799;SDS011;8002;51.196;7.010;2023-07-31T00:54:58;12.82;;;5.88;;
15799;SDS011;8002;51.196;7.010;2023-07-31T00:57:24;10.68;;;5.75;;
15799;SDS011;8002;51.196;7.010;2023-07-31T00:59:52;10.82;;;5.60;;
15799;SDS011;8002;51.196;7.010;2023-07-31T01:02:18;12.57;;;5.97;;
15799;SDS011;8002;51.196;7.010;2023-07-31T01:04:45;12.55;;;5.85;;
15799;SDS011;8002;51.196;7.010;2023-07-31T01:07:13;11.98;;;6.45;;
15799;SDS011;8002;51.196;7.010;2023-07-31T01:09:40;16.80;;;6.03;;
15799;SDS011;8002;51.196;7.010;2023-07-31T01:12:09;9.13;;;5.97;;
15799;SDS011;8002;51.196;7.010;2023-07-31T01:14:38;13.57;;;5.65;;
15799;SDS011;8002;51.196;7.010;2023-07-31T01:17:06;10.00;;;5.57;;
15799;SDS011;8002;51.196;7.010;2023-07-31T01:19:32;15.60;;;5.88;;
15799;SDS011;8002;51.196;7.010;2023-07-31T01:22:06;9.38;;;5.40;;
15799;SDS011;8002;51.196;7.010;2023-07-31T01:24:40;15.68;;;5.80;;
15799;SDS011;8002;51.196;7.010;2023-07-31T01:27:10;9.45;;;5.38;;
15799;SDS011;8002;51.196;7.010;2023-07-31T01:29:40;15.93;;;5.90;;
15799;SDS011;8002;51.196;7.010;2023-07-31T01:32:09;8.88;;;5.60;;
15799;SDS011;8002;51.196;7.010;2023-07-31T01:34:36;10.77;;;5.32;;
15799;SDS011;8002;51.196;7.010;2023-07-31T01:37:03;13.75;;;5.85;;
15799;SDS011;8002;51.196;7.010;2023-07-31T01:39:30;11.75;;;5.55;;
15799;SDS011;8002;51.196;7.010;2023-07-31T01:41:57;9.30;;;5.28;;
15799;SDS011;8002;51.196;7.010;2023-07-31T01:44:24;11.05;;;5.97;;
15799;SDS011;8002;51.196;7.010;2023-07-31T01:46:51;11.23;;;6.00;;
15799;SDS011;8002;51.196;7.010;2023-07-31T01:49:17;13.85;;;5.65;;
15799;SDS011;8002;51.196;7.010;2023-07-31T01:51:43;11.00;;;5.78;;
15799;SDS011;8002;51.196;7.010;2023-07-31T01:54:10;14.65;;;6.47;;
15799;SDS011;8002;51.196;7.010;2023-07-31T01:56:36;11.63;;;5.55;;
15799;SDS011;8002;51.196;7.010;2023-07-31T01:59:02;9.90;;;5.68;;
15799;SDS011;8002;51.196;7.010;2023-07-31T02:01:30;14.93;;;6.35;;
15799;SDS011;8002;51.196;7.010;2023-07-31T02:03:56;13.85;;;6.55;;
15799;SDS011;8002;51.196;7.010;2023-07-31T02:06:23;11.68;;;5.03;;
15799;SDS011;8002;51.196;7.010;2023-07-31T02:08:49;13.73;;;5.97;;
15799;SDS011;8002;51.196;7.010;2023-07-31T02:11:15;11.48;;;5.47;;
15799;SDS011;8002;51.196;7.010;2023-07-31T02:13:42;12.57;;;6.13;;
15799;SDS011;8002;51.196;7.010;2023-07-31T02:16:08;11.57;;;5.78;;
15799;SDS011;8002;51.196;7.010;2023-07-31T02:18:36;14.35;;;6.68;;
15799;SDS011;8002;51.196;7.010;2023-07-31T02:21:02;12.20;;;6.20;;
15799;SDS011;8002;51.196;7.010;2023-07-31T02:23:28;11.52;;;5.45;;
15799;SDS011;8002;51.196;7.010;2023-07-31T02:25:55;14.52;;;6.35;;
15799;SDS011;8002;51.196;7.010;2023-07-31T02:28:21;11.38;;;5.88;;
15799;SDS011;8002;51.196;7.010;2023-07-31T02:30:48;13.13;;;5.93;;
15799;SDS011;8002;51.196;7.010;2023-07-31T02:33:16;11.98;;;6.00;;
15799;SDS011;8002;51.196;7.010;2023-07-31T02:35:43;11.05;;;5.68;;
15799;SDS011;8002;51.196;7.010;2023-07-31T02:38:10;12.65;;;6.63;;
15799;SDS011;8002;51.196;7.010;2023-07-31T02:40:36;10.88;;;5.75;;
15799;SDS011;8002;51.196;7.010;2023-07-31T02:43:02;11.68;;;5.50;;
15799;SDS011;8002;51.196;7.010;2023-07-31T02:45:29;10.65;;;5.88;;
15799;SDS011;8002;51.196;7.010;2023-07-31T02:47:55;16.17;;;6.30;;
15799;SDS011;8002;51.196;7.010;2023-07-31T02:50:21;8.88;;;5.55;;
15799;SDS011;8002;51.196;7.010;2023-07-31T02:52:50;10.57;;;5.90;;
15799;SDS011;8002;51.196;7.010;2023-07-31T02:55:16;12.60;;;6.20;;
15799;SDS011;8002;51.196;7.010;2023-07-31T02:57:42;15.57;;;6.50;;
15799;SDS011;8002;51.196;7.010;2023-07-31T03:00:09;9.90;;;5.97;;
15799;SDS011;8002;51.196;7.010;2023-07-31T03:02:35;14.82;;;6.53;;
15799;SDS011;8002;51.196;7.010;2023-07-31T03:05:02;12.00;;;5.75;;
15799;SDS011;8002;51.196;7.010;2023-07-31T03:07:28;15.68;;;5.90;;
15799;SDS011;8002;51.196;7.010;2023-07-31T03:09:57;13.27;;;6.05;;
15799;SDS011;8002;51.196;7.010;2023-07-31T03:12:24;9.90;;;5.70;;
15799;SDS011;8002;51.196;7.010;2023-07-31T03:14:50;10.25;;;5.55;;
15799;SDS011;8002;51.196;7.010;2023-07-31T03:17:16;15.02;;;7.28;;
15799;SDS011;8002;51.196;7.010;2023-07-31T03:19:43;11.02;;;6.13;;
15799;SDS011;8002;51.196;7.010;2023-07-31T03:22:09;14.02;;;6.65;;
15799;SDS011;8002;51.196;7.010;2023-07-31T03:24:36;13.30;;;6.88;;
15799;SDS011;8002;51.196;7.010;2023-07-31T03:27:04;9.00;;;5.53;;
15799;SDS011;8002;51.196;7.010;2023-07-31T03:29:30;9.48;;;5.65;;
15799;SDS011;8002;51.196;7.010;2023-07-31T03:31:57;9.27;;;6.22;;
15799;SDS011;8002;51.196;7.010;2023-07-31T03:34:24;11.43;;;6.70;;
15799;SDS011;8002;51.196;7.010;2023-07-31T03:36:50;10.38;;;5.97;;
15799;SDS011;8002;51.196;7.010;2023-07-31T03:39:16;12.82;;;5.80;;
15799;SDS011;8002;51.196;7.010;2023-07-31T03:41:43;11.48;;;6.35;;
15799;SDS011;8002;51.196;7.010;2023-07-31T03:44:12;15.32;;;6.85;;
15799;SDS011;8002;51.196;7.010;2023-07-31T03:46:39;10.85;;;6.00;;
15799;SDS011;8002;51.196;7.010;2023-07-31T03:49:05;8.60;;;5.57;;
15799;SDS011;8002;51.196;7.010;2023-07-31T03:51:31;12.63;;;6.43;;
15799;SDS011;8002;51.196;7.010;2023-07-31T03:53:58;13.20;;;7.18;;
15799;SDS011;8002;51.196;7.010;2023-07-31T03:56:25;11.15;;;6.60;;
15799;SDS011;8002;51.196;7.010;2023-07-31T03:58:53;11.60;;;6.30;;
15799;SDS011;8002;51.196;7.010;2023-07-31T04:01:22;12.10;;;6.55;;
15799;SDS011;8002;51.196;7.010;2023-07-31T04:03:49;11.13;;;6.10;;
15799;SDS011;8002;51.196;7.010;2023-07-31T04:06:15;14.25;;;6.63;;
15799;SDS011;8002;51.196;7.010;2023-07-31T04:08:43;12.02;;;6.60;;
15799;SDS011;8002;51.196;7.010;2023-07-31T04:11:10;14.23;;;6.40;;
15799;SDS011;8002;51.196;7.010;2023-07-31T04:13:37;12.82;;;6.30;;
15799;SDS011;8002;51.196;7.010;2023-07-31T04:16:03;11.68;;;6.72;;
15799;SDS011;8002;51.196;7.010;2023-07-31T04:18:31;10.88;;;5.95;;
15799;SDS011;8002;51.196;7.010;2023-07-31T04:20:58;11.65;;;7.10;;
15799;SDS011;8002;51.196;7.010;2023-07-31T04:23:27;10.95;;;5.95;;
15799;SDS011;8002;51.196;7.010;2023-07-31T04:25:54;12.30;;;6.15;;
15799;SDS011;8002;51.196;7.010;2023-07-31T04:28:20;9.20;;;6.32;;
15799;SDS011;8002;51.196;7.010;2023-07-31T04:30:46;12.73;;;6.57;;
15799;SDS011;8002;51.196;7.010;2023-07-31T04:33:13;11.13;;;6.65;;
15799;SDS011;8002;51.196;7.010;2023-07-31T04:35:41;11.10;;;6.68;;
15799;SDS011;8002;51.196;7.010;2023-07-31T04:38:07;10.75;;;7.35;;
15799;SDS011;8002;51.196;7.010;2023-07-31T04:40:34;10.27;;;6.68;;
15799;SDS011;8002;51.196;7.010;2023-07-31T04:43:01;12.20;;;7.28;;
15799;SDS011;8002;51.196;7.010;2023-07-31T04:45:28;11.27;;;7.28;;
15799;SDS011;8002;51.196;7.010;2023-07-31T04:47:56;13.25;;;6.72;;
15799;SDS011;8002;51.196;7.010;2023-07-31T04:50:22;9.05;;;5.95;;
15799;SDS011;8002;51.196;7.010;2023-07-31T04:52:50;11.35;;;6.60;;
15799;SDS011;8002;51.196;7.010;2023-07-31T04:55:17;14.80;;;7.18;;
15799;SDS011;8002;51.196;7.010;2023-07-31T04:57:44;9.48;;;7.20;;
15799;SDS011;8002;51.196;7.010;2023-07-31T05:00:11;15.57;;;7.38;;
15799;SDS011;8002;51.196;7.010;2023-07-31T05:02:38;11.48;;;7.20;;
15799;SDS011;8002;51.196;7.010;2023-07-31T05:05:05;10.88;;;7.13;;
15799;SDS011;8002;51.196;7.010;2023-07-31T05:07:32;12.70;;;7.35;;
15799;SDS011;8002;51.196;7.010;2023-07-31T05:10:00;12.80;;;7.70;;
15799;SDS011;8002;51.196;7.010;2023-07-31T05:12:26;17.13;;;7.70;;
15799;SDS011;8002;51.196;7.010;2023-07-31T05:14:52;12.38;;;8.10;;
15799;SDS011;8002;51.196;7.010;2023-07-31T05:17:20;10.93;;;7.07;;
15799;SDS011;8002;51.196;7.010;2023-07-31T05:19:47;12.95;;;7.90;;
15799;SDS011;8002;51.196;7.010;2023-07-31T05:22:13;10.82;;;7.05;;
15799;SDS011;8002;51.196;7.010;2023-07-31T05:24:40;10.90;;;7.40;;
15799;SDS011;8002;51.196;7.010;2023-07-31T05:27:08;11.73;;;7.47;;
15799;SDS011;8002;51.196;7.010;2023-07-31T05:29:34;11.88;;;7.32;;
15799;SDS011;8002;51.196;7.010;2023-07-31T05:32:01;12.90;;;7.78;;
15799;SDS011;8002;51.196;7.010;2023-07-31T05:34:27;11.63;;;7.25;;
15799;SDS011;8002;51.196;7.010;2023-07-31T05:36:53;12.50;;;7.25;;
15799;SDS011;8002;51.196;7.010;2023-07-31T05:39:20;14.80;;;6.93;;
15799;SDS011;8002;51.196;7.010;2023-07-31T05:41:46;15.18;;;7.55;;
15799;SDS011;8002;51.196;7.010;2023-07-31T05:44:14;10.50;;;6.60;;
15799;SDS011;8002;51.196;7.010;2023-07-31T05:46:41;11.02;;;6.60;;
15799;SDS011;8002;51.196;7.010;2023-07-31T05:49:07;9.80;;;7.20;;
15799;SDS011;8002;51.196;7.010;2023-07-31T05:51:33;9.52;;;6.72;;
15799;SDS011;8002;51.196;7.010;2023-07-31T05:54:00;12.40;;;6.97;;
15799;SDS011;8002;51.196;7.010;2023-07-31T05:56:26;10.00;;;6.90;;
15799;SDS011;8002;51.196;7.010;2023-07-31T05:58:52;8.02;;;6.80;;
15799;SDS011;8002;51.196;7.010;2023-07-31T06:01:20;8.60;;;6.90;;
15799;SDS011;8002;51.196;7.010;2023-07-31T06:03:47;10.23;;;6.45;;
15799;SDS011;8002;51.196;7.010;2023-07-31T06:06:13;11.40;;;7.22;;
15799;SDS011;8002;51.196;7.010;2023-07-31T06:08:40;11.95;;;7.15;;
15799;SDS011;8002;51.196;7.010;2023-07-31T06:11:06;10.43;;;7.05;;
15799;SDS011;8002;51.196;7.010;2023-07-31T06:13:34;10.50;;;6.97;;
15799;SDS011;8002;51.196;7.010;2023-07-31T06:16:00;9.95;;;6.80;;
15799;SDS011;8002;51.196;7.010;2023-07-31T06:18:31;9.25;;;6.53;;
15799;SDS011;8002;51.196;7.010;2023-07-31T06:20:57;11.23;;;7.13;;
15799;SDS011;8002;51.196;7.010;2023-07-31T06:23:24;8.13;;;6.75;;
15799;SDS011;8002;51.196;7.010;2023-07-31T06:25:50;9.40;;;6.28;;
15799;SDS011;8002;51.196;7.010;2023-07-31T06:28:16;9.77;;;6.57;;
15799;SDS011;8002;51.196;7.010;2023-07-31T06:30:43;13.82;;;7.05;;
15799;SDS011;8002;51.196;7.010;2023-07-31T06:33:09;9.73;;;6.47;;
15799;SDS011;8002;51.196;7.010;2023-07-31T06:35:37;9.85;;;6.68;;
15799;SDS011;8002;51.196;7.010;2023-07-31T06:38:03;9.10;;;6.28;;
15799;SDS011;8002;51.196;7.010;2023-07-31T06:40:29;9.13;;;6.45;;
15799;SDS011;8002;51.196;7.010;2023-07-31T06:42:56;11.57;;;6.20;;
15799;SDS011;8002;51.196;7.010;2023-07-31T06:45:22;12.32;;;7.45;;
15799;SDS011;8002;51.196;7.010;2023-07-31T06:47:48;10.27;;;6.90;;
15799;SDS011;8002;51.196;7.010;2023-07-31T06:50:15;9.48;;;6.15;;
15799;SDS011;8002;51.196;7.010;2023-07-31T06:52:42;8.30;;;6.43;;
15799;SDS011;8002;51.196;7.010;2023-07-31T06:55:16;8.20;;;6.53;;
15799;SDS011;8002;51.196;7.010;2023-07-31T06:57:43;8.15;;;6.57;;
15799;SDS011;8002;51.196;7.010;2023-07-31T07:00:10;8.38;;;5.90;;
15799;SDS011;8002;51.196;7.010;2023-07-31T07:02:36;10.23;;;6.63;;
15799;SDS011;8002;51.196;7.010;2023-07-31T07:05:03;8.10;;;6.53;;
15799;SDS011;8002;51.196;7.010;2023-07-31T07:07:29;10.80;;;7.07;;
15799;SDS011;8002;51.196;7.010;2023-07-31T07:09:57;9.20;;;6.53;;
15799;SDS011;8002;51.196;7.010;2023-07-31T07:12:24;8.10;;;6.45;;
15799;SDS011;8002;51.196;7.010;2023-07-31T07:14:51;11.45;;;7.07;;
15799;SDS011;8002;51.196;7.010;2023-07-31T07:17:17;8.15;;;6.78;;
15799;SDS011;8002;51.196;7.010;2023-07-31T07:19:44;12.20;;;6.65;;
15799;SDS011;8002;51.196;7.010;2023-07-31T07:22:11;10.25;;;6.80;;
15799;SDS011;8002;51.196;7.010;2023-07-31T07:24:37;6.85;;;6.15;;
15799;SDS011;8002;51.196;7.010;2023-07-31T07:27:05;8.70;;;7.60;;
15799;SDS011;8002;51.196;7.010;2023-07-31T07:29:33;14.43;;;6.60;;
15799;SDS011;8002;51.196;7.010;2023-07-31T07:31:59;10.63;;;6.47;;
15799;SDS011;8002;51.196;7.010;2023-07-31T07:34:26;14.30;;;6.95;;
15799;SDS011;8002;51.196;7.010;2023-07-31T07:36:52;9.35;;;6.55;;
15799;SDS011;8002;51.196;7.010;2023-07-31T07:39:18;10.60;;;6.57;;
15799;SDS011;8002;51.196;7.010;2023-07-31T07:41:45;10.90;;;6.57;;
15799;SDS011;8002;51.196;7.010;2023-07-31T07:44:13;11.27;;;6.45;;
15799;SDS011;8002;51.196;7.010;2023-07-31T07:46:39;11.85;;;6.95;;
15799;SDS011;8002;51.196;7.010;2023-07-31T07:49:06;10.10;;;6.18;;
15799;SDS011;8002;51.196;7.010;2023-07-31T07:51:32;12.25;;;7.57;;
15799;SDS011;8002;51.196;7.010;2023-07-31T07:53:58;10.20;;;6.30;;
15799;SDS011;8002;51.196;7.010;2023-07-31T07:56:25;7.93;;;6.43;;
15799;SDS011;8002;51.196;7.010;2023-07-31T07:58:51;11.95;;;7.30;;
15799;SDS011;8002;51.196;7.010;2023-07-31T08:01:19;11.25;;;6.55;;
15799;SDS011;8002;51.196;7.010;2023-07-31T08:03:46;12.35;;;6.72;;
15799;SDS011;8002;51.196;7.010;2023-07-31T08:06:12;13.77;;;6.90;;
15799;SDS011;8002;51.196;7.010;2023-07-31T08:08:39;8.55;;;5.97;;
15799;SDS011;8002;51.196;7.010;2023-07-31T08:11:05;8.82;;;5.93;;
15799;SDS011;8002;51.196;7.010;2023-07-31T08:13:31;10.57;;;6.40;;
15799;SDS011;8002;51.196;7.010;2023-07-31T08:15:58;9.65;;;6.90;;
15799;SDS011;8002;51.196;7.010;2023-07-31T08:18:25;10.48;;;6.28;;
15799;SDS011;8002;51.196;7.010;2023-07-31T08:20:52;9.63;;;6.55;;
15799;SDS011;8002;51.196;7.010;2023-07-31T08:23:18;11.20;;;6.72;;
15799;SDS011;8002;51.196;7.010;2023-07-31T08:25:45;11.85;;;7.00;;
15799;SDS011;8002;51.196;7.010;2023-07-31T08:28:11;7.80;;;5.60;;
15799;SDS011;8002;51.196;7.010;2023-07-31T08:30:37;9.75;;;5.47;;
15799;SDS011;8002;51.196;7.010;2023-07-31T08:33:04;8.63;;;5.88;;
15799;SDS011;8002;51.196;7.010;2023-07-31T08:35:31;8.18;;;5.35;;
15799;SDS011;8002;51.196;7.010;2023-07-31T08:37:58;8.48;;;5.15;;
15799;SDS011;8002;51.196;7.010;2023-07-31T08:40:24;7.97;;;5.38;;
15799;SDS011;8002;51.196;7.010;2023-07-31T08:42:52;8.45;;;5.20;;
15799;SDS011;8002;51.196;7.010;2023-07-31T08:45:19;8.48;;;5.80;;
15799;SDS011;8002;51.196;7.010;2023-07-31T08:47:46;9.13;;;5.55;;
15799;SDS011;8002;51.196;7.010;2023-07-31T08:50:13;8.38;;;5.45;;
15799;SDS011;8002;51.196;7.010;2023-07-31T08:52:41;6.68;;;5.07;;
15799;SDS011;8002;51.196;7.010;2023-07-31T08:55:08;7.18;;;5.50;;
15799;SDS011;8002;51.196;7.010;2023-07-31T08:57:35;8.02;;;5.63;;
15799;SDS011;8002;51.196;7.010;2023-07-31T09:00:02;10.48;;;6.10;;
15799;SDS011;8002;51.196;7.010;2023-07-31T09:02:30;7.57;;;5.70;;
15799;SDS011;8002;51.196;7.010;2023-07-31T09:04:57;12.68;;;8.38;;
15799;SDS011;8002;51.196;7.010;2023-07-31T09:07:24;9.27;;;5.72;;
15799;SDS011;8002;51.196;7.010;2023-07-31T09:09:52;9.82;;;6.07;;
15799;SDS011;8002;51.196;7.010;2023-07-31T09:12:18;9.52;;;5.47;;
15799;SDS011;8002;51.196;7.010;2023-07-31T09:14:45;10.57;;;6.03;;
15799;SDS011;8002;51.196;7.010;2023-07-31T09:17:11;8.88;;;5.25;;
15799;SDS011;8002;51.196;7.010;2023-07-31T09:19:38;8.10;;;5.28;;
15799;SDS011;8002;51.196;7.010;2023-07-31T09:22:05;7.43;;;5.75;;
15799;SDS011;8002;51.196;7.010;2023-07-31T09:24:32;8.38;;;6.28;;
15799;SDS011;8002;51.196;7.010;2023-07-31T09:27:00;6.88;;;6.05;;
15799;SDS011;8002;51.196;7.010;2023-07-31T09:29:27;9.95;;;6.00;;
15799;SDS011;8002;51.196;7.010;2023-07-31T09:31:54;9.88;;;6.68;;
15799;SDS011;8002;51.196;7.010;2023-07-31T09:34:28;9.57;;;6.53;;
15799;SDS011;8002;51.196;7.010;2023-07-31T09:36:57;8.98;;;6.20;;
15799;SDS011;8002;51.196;7.010;2023-07-31T09:39:24;10.43;;;6.55;;
15799;SDS011;8002;51.196;7.010;2023-07-31T09:41:53;9.15;;;6.20;;
15799;SDS011;8002;51.196;7.010;2023-07-31T09:44:21;9.05;;;6.32;;
15799;SDS011;8002;51.196;7.010;2023-07-31T09:46:47;8.73;;;6.05;;
15799;SDS011;8002;51.196;7.010;2023-07-31T09:49:14;7.68;;;5.75;;
15799;SDS011;8002;51.196;7.010;2023-07-31T09:51:41;9.15;;;6.28;;
15799;SDS011;8002;51.196;7.010;2023-07-31T09:54:11;6.40;;;5.50;;
15799;SDS011;8002;51.196;7.010;2023-07-31T09:56:39;9.00;;;5.95;;
15799;SDS011;8002;51.196;7.010;2023-07-31T09:59:07;7.28;;;6.25;;
15799;SDS011;8002;51.196;7.010;2023-07-31T10:01:35;10.63;;;6.50;;
15799;SDS011;8002;51.196;7.010;2023-07-31T10:04:01;7.07;;;5.57;;
15799;SDS011;8002;51.196;7.010;2023-07-31T10:06:28;9.18;;;5.85;;
15799;SDS011;8002;51.196;7.010;2023-07-31T10:08:54;8.20;;;5.60;;
15799;SDS011;8002;51.196;7.010;2023-07-31T10:11:22;9.05;;;5.68;;
15799;SDS011;8002;51.196;7.010;2023-07-31T10:13:48;7.57;;;6.13;;
15799;SDS011;8002;51.196;7.010;2023-07-31T10:16:15;7.55;;;5.95;;
15799;SDS011;8002;51.196;7.010;2023-07-31T10:18:43;7.97;;;6.63;;
15799;SDS011;8002;51.196;7.010;2023-07-31T10:21:10;10.88;;;7.05;;
15799;SDS011;8002;51.196;7.010;2023-07-31T10:23:37;10.27;;;6.45;;
15799;SDS011;8002;51.196;7.010;2023-07-31T10:26:04;7.43;;;6.35;;
15799;SDS011;8002;51.196;7.010;2023-07-31T10:28:31;10.93;;;7.28;;
15799;SDS011;8002;51.196;7.010;2023-07-31T10:30:58;11.45;;;6.78;;
15799;SDS011;8002;51.196;7.010;2023-07-31T10:33:25;8.82;;;6.15;;
15799;SDS011;8002;51.196;7.010;2023-07-31T10:35:55;8.00;;;5.88;;
15799;SDS011;8002;51.196;7.010;2023-07-31T10:38:37;11.80;;;6.75;;
15799;SDS011;8002;51.196;7.010;2023-07-31T10:41:07;8.63;;;6.25;;
15799;SDS011;8002;51.196;7.010;2023-07-31T10:43:34;6.47;;;5.68;;
15799;SDS011;8002;51.196;7.010;2023-07-31T10:46:00;9.60;;;6.10;;
15799;SDS011;8002;51.196;7.010;2023-07-31T10:48:33;9.10;;;6.63;;
15799;SDS011;8002;51.196;7.010;2023-07-31T10:51:00;9.27;;;5.70;;
15799;SDS011;8002;51.196;7.010;2023-07-31T10:53:31;8.88;;;6.70;;
15799;SDS011;8002;51.196;7.010;2023-07-31T10:55:58;8.90;;;6.25;;
15799;SDS011;8002;51.196;7.010;2023-07-31T10:58:24;12.52;;;7.13;;
15799;SDS011;8002;51.196;7.010;2023-07-31T11:00:54;9.38;;;5.90;;
15799;SDS011;8002;51.196;7.010;2023-07-31T11:03:24;10.48;;;5.68;;
15799;SDS011;8002;51.196;7.010;2023-07-31T11:05:51;8.52;;;5.80;;
15799;SDS011;8002;51.196;7.010;2023-07-31T11:08:20;7.88;;;5.40;;
15799;SDS011;8002;51.196;7.010;2023-07-31T11:10:48;10.68;;;6.15;;
15799;SDS011;8002;51.196;7.010;2023-07-31T11:13:15;8.02;;;5.40;;
15799;SDS011;8002;51.196;7.010;2023-07-31T11:15:41;8.60;;;6.00;;
15799;SDS011;8002;51.196;7.010;2023-07-31T11:18:07;7.03;;;5.22;;
15799;SDS011;8002;51.196;7.010;2023-07-31T11:20:36;6.75;;;4.90;;
15799;SDS011;8002;51.196;7.010;2023-07-31T11:23:02;6.60;;;5.10;;
15799;SDS011;8002;51.196;7.010;2023-07-31T11:25:31;10.05;;;7.18;;
15799;SDS011;8002;51.196;7.010;2023-07-31T11:27:57;6.72;;;6.03;;
15799;SDS011;8002;51.196;7.010;2023-07-31T11:30:24;5.70;;;4.70;;
15799;SDS011;8002;51.196;7.010;2023-07-31T11:32:50;6.00;;;4.03;;
15799;SDS011;8002;51.196;7.010;2023-07-31T11:35:17;6.38;;;4.32;;
15799;SDS011;8002;51.196;7.010;2023-07-31T11:37:44;5.13;;;4.20;;
15799;SDS011;8002;51.196;7.010;2023-07-31T11:40:10;5.68;;;3.95;;
15799;SDS011;8002;51.196;7.010;2023-07-31T11:42:38;4.43;;;3.10;;
15799;SDS011;8002;51.196;7.010;2023-07-31T11:45:05;7.47;;;3.38;;
15799;SDS011;8002;51.196;7.010;2023-07-31T11:47:32;4.07;;;3.50;;
15799;SDS011;8002;51.196;7.010;2023-07-31T11:49:59;3.88;;;2.80;;
15799;SDS011;8002;51.196;7.010;2023-07-31T11:52:26;3.40;;;2.75;;
15799;SDS011;8002;51.196;7.010;2023-07-31T11:54:53;2.70;;;2.50;;
15799;SDS011;8002;51.196;7.010;2023-07-31T11:57:19;4.00;;;2.63;;
15799;SDS011;8002;51.196;7.010;2023-07-31T11:59:48;3.03;;;2.72;;
15799;SDS011;8002;51.196;7.010;2023-07-31T12:02:14;2.67;;;2.40;;
15799;SDS011;8002;51.196;7.010;2023-07-31T12:04:41;2.53;;;2.33;;
15799;SDS011;8002;51.196;7.010;2023-07-31T12:07:07;3.03;;;2.40;;
15799;SDS011;8002;51.196;7.010;2023-07-31T12:09:34;2.75;;;2.55;;
15799;SDS011;8002;51.196;7.010;2023-07-31T12:12:00;3.40;;;2.50;;
15799;SDS011;8002;51.196;7.010;2023-07-31T12:14:28;2.35;;;2.10;;
15799;SDS011;8002;51.196;7.010;2023-07-31T12:16:56;5.05;;;2.85;;
15799;SDS011;8002;51.196;7.010;2023-07-31T12:19:22;2.70;;;2.50;;
15799;SDS011;8002;51.196;7.010;2023-07-31T12:21:49;2.42;;;1.85;;
15799;SDS011;8002;51.196;7.010;2023-07-31T12:24:17;3.03;;;2.50;;
15799;SDS011;8002;51.196;7.010;2023-07-31T12:26:45;2.72;;;2.47;;
15799;SDS011;8002;51.196;7.010;2023-07-31T12:29:11;3.03;;;2.75;;
15799;SDS011;8002;51.196;7.010;2023-07-31T12:31:37;3.60;;;3.25;;
15799;SDS011;8002;51.196;7.010;2023-07-31T12:34:15;3.78;;;3.47;;
15799;SDS011;8002;51.196;7.010;2023-07-31T12:36:42;4.13;;;3.72;;
15799;SDS011;8002;51.196;7.010;2023-07-31T12:39:08;5.97;;;3.72;;
15799;SDS011;8002;51.196;7.010;2023-07-31T12:41:35;4.70;;;3.92;;
15799;SDS011;8002;51.196;7.010;2023-07-31T12:44:02;4.25;;;3.85;;
15799;SDS011;8002;51.196;7.010;2023-07-31T12:46:28;4.85;;;3.92;;
15799;SDS011;8002;51.196;7.010;2023-07-31T12:48:55;7.57;;;5.70;;
15799;SDS011;8002;51.196;7.010;2023-07-31T12:51:22;4.38;;;3.70;;
15799;SDS011;8002;51.196;7.010;2023-07-31T12:53:49;4.55;;;3.85;;
15799;SDS011;8002;51.196;7.010;2023-07-31T12:56:15;6.28;;;4.03;;
15799;SDS011;8002;51.196;7.010;2023-07-31T12:58:42;4.57;;;4.18;;
15799;SDS011;8002;51.196;7.010;2023-07-31T13:01:08;4.32;;;3.92;;
15799;SDS011;8002;51.196;7.010;2023-07-31T13:03:35;4.65;;;4.25;;
15799;SDS011;8002;51.196;7.010;2023-07-31T13:06:01;4.68;;;3.55;;
15799;SDS011;8002;51.196;7.010;2023-07-31T13:08:29;4.00;;;3.60;;
15799;SDS011;8002;51.196;7.010;2023-07-31T13:10:55;3.60;;;3.28;;
15799;SDS011;8002;51.196;7.010;2023-07-31T13:13:22;4.32;;;3.60;;
15799;SDS011;8002;51.196;7.010;2023-07-31T13:15:48;6.72;;;4.57;;
15799;SDS011;8002;51.196;7.010;2023-07-31T13:18:14;4.70;;;4.30;;
15799;SDS011;8002;51.196;7.010;2023-07-31T13:20:41;5.57;;;4.35;;
15799;SDS011;8002;51.196;7.010;2023-07-31T13:23:07;5.18;;;4.28;;
15799;SDS011;8002;51.196;7.010;2023-07-31T13:25:35;5.10;;;3.95;;
15799;SDS011;8002;51.196;7.010;2023-07-31T13:28:01;6.22;;;4.90;;
15799;SDS011;8002;51.196;7.010;2023-07-31T13:30:27;5.10;;;4.60;;
15799;SDS011;8002;51.196;7.010;2023-07-31T13:32:54;5.78;;;4.70;;
15799;SDS011;8002;51.196;7.010;2023-07-31T13:35:20;6.43;;;4.95;;
15799;SDS011;8002;51.196;7.010;2023-07-31T13:37:46;5.60;;;4.82;;
15799;SDS011;8002;51.196;7.010;2023-07-31T13:40:13;7.40;;;5.15;;
15799;SDS011;8002;51.196;7.010;2023-07-31T13:42:40;7.25;;;5.32;;
15799;SDS011;8002;51.196;7.010;2023-07-31T13:45:07;8.30;;;5.07;;
15799;SDS011;8002;51.196;7.010;2023-07-31T13:47:33;6.55;;;5.22;;
15799;SDS011;8002;51.196;7.010;2023-07-31T13:49:59;6.43;;;5.40;;
15799;SDS011;8002;51.196;7.010;2023-07-31T13:52:26;5.90;;;4.72;;
15799;SDS011;8002;51.196;7.010;2023-07-31T13:54:52;5.63;;;4.82;;
15799;SDS011;8002;51.196;7.010;2023-07-31T13:57:18;4.10;;;3.80;;
15799;SDS011;8002;51.196;7.010;2023-07-31T13:59:46;5.00;;;4.35;;
15799;SDS011;8002;51.196;7.010;2023-07-31T14:02:12;6.38;;;4.75;;
15799;SDS011;8002;51.196;7.010;2023-07-31T14:04:40;4.88;;;4.40;;
15799;SDS011;8002;51.196;7.010;2023-07-31T14:07:06;4.78;;;4.38;;
15799;SDS011;8002;51.196;7.010;2023-07-31T14:09:33;7.60;;;4.53;;
15799;SDS011;8002;51.196;7.010;2023-07-31T14:11:59;5.85;;;3.92;;
15799;SDS011;8002;51.196;7.010;2023-07-31T14:14:25;6.68;;;5.10;;
15799;SDS011;8002;51.196;7.010;2023-07-31T14:16:53;4.80;;;4.28;;
15799;SDS011;8002;51.196;7.010;2023-07-31T14:19:19;4.57;;;4.13;;
15799;SDS011;8002;51.196;7.010;2023-07-31T14:21:46;4.70;;;4.28;;
15799;SDS011;8002;51.196;7.010;2023-07-31T14:24:12;5.28;;;4.20;;
15799;SDS011;8002;51.196;7.010;2023-07-31T14:26:39;5.38;;;4.45;;
15799;SDS011;8002;51.196;7.010;2023-07-31T14:29:05;5.82;;;4.50;;
15799;SDS011;8002;51.196;7.010;2023-07-31T14:31:31;7.50;;;6.32;;
15799;SDS011;8002;51.196;7.010;2023-07-31T14:33:59;8.05;;;7.25;;
15799;SDS011;8002;51.196;7.010;2023-07-31T14:36:25;4.30;;;3.58;;
15799;SDS011;8002;51.196;7.010;2023-07-31T14:38:52;5.10;;;3.78;;
15799;SDS011;8002;51.196;7.010;2023-07-31T14:41:18;5.72;;;4.70;;
15799;SDS011;8002;51.196;7.010;2023-07-31T14:43:44;5.00;;;4.50;;
15799;SDS011;8002;51.196;7.010;2023-07-31T14:46:11;4.53;;;4.13;;
15799;SDS011;8002;51.196;7.010;2023-07-31T14:48:37;6.97;;;4.38;;
15799;SDS011;8002;51.196;7.010;2023-07-31T14:51:05;6.90;;;4.70;;
15799;SDS011;8002;51.196;7.010;2023-07-31T14:53:31;5.00;;;4.20;;